Time;durP1;ratioP1;P1;durP2;ratioP2;P2;SDS_P1;SDS_P2;PMS_P1;PMS_P2;Temp;Humidity;BMP_temperature;BMP_pressure;BME280_temperature;BME280_humidity;BME280_pressure;Samples;Min_cycle;Max_cycle;Signal;HPM_P1;HPM_P2
2023/02/14 00:02:06;;;;;;;68.03;29.95;;;;;;;2.22;100.00;103500.78;2615057;36;20061;-55
2023/02/14 00:04:37;;;;;;;61.33;28.33;;;;;;;2.12;100.00;103491.16;2615037;36;20034;-53
2023/02/14 00:07:05;;;;;;;59.47;27.55;;;;;;;2.11;100.00;103498.25;2613947;36;20042;-56
2023/02/14 00:09:34;;;;;;;58.90;27.40;;;;;;;2.08;100.00;103492.97;2611198;36;20711;-56
2023/02/14 00:12:02;;;;;;;56.70;25.92;;;;;;;2.15;100.00;103496.44;2611617;36;20038;-54
2023/02/14 00:17:14;;;;;;;60.72;25.35;;;;;;;2.16;100.00;103493.75;2605334;36;20058;-56
2023/02/14 00:19:42;;;;;;;55.50;24.27;;;;;;;2.12;100.00;103494.72;2603733;36;20042;-58
2023/02/14 00:22:11;;;;;;;55.20;25.17;;;;;;;2.11;100.00;103498.25;2604810;36;20038;-54
2023/02/14 00:24:39;;;;;;;53.10;23.87;;;;;;;2.00;100.00;103490.38;2604782;36;20038;-57
2023/02/14 00:27:08;;;;;;;51.97;24.23;;;;;;;1.97;100.00;103493.06;2610002;36;20062;-52
2023/02/14 00:29:37;;;;;;;52.22;22.80;;;;;;;1.93;100.00;103483.38;2612122;36;20042;-54
2023/02/14 00:32:05;;;;;;;49.03;22.38;;;;;;;1.87;100.00;103483.41;2611117;36;20040;-55
2023/02/14 00:34:37;;;;;;;53.97;23.02;;;;;;;1.89;100.00;103485.19;2612175;36;20578;-54
2023/02/14 00:37:05;;;;;;;48.45;20.95;;;;;;;1.79;100.00;103490.59;2613559;36;20026;-53
2023/02/14 00:39:34;;;;;;;49.63;21.83;;;;;;;1.80;100.00;103481.75;2615488;36;20041;-54
2023/02/14 00:42:02;;;;;;;49.93;24.00;;;;;;;1.87;100.00;103478.09;2616038;36;20535;-55
2023/02/14 00:44:31;;;;;;;52.63;23.90;;;;;;;1.79;100.00;103475.53;2615780;36;20034;-57
2023/02/14 00:46:59;;;;;;;52.92;22.40;;;;;;;1.78;100.00;103472.91;2616011;36;20065;-57
2023/02/14 00:49:27;;;;;;;52.75;23.90;;;;;;;1.78;100.00;103467.59;2615471;36;20042;-51
2023/02/14 00:51:58;;;;;;;51.38;22.98;;;;;;;1.79;100.00;103458.72;2615963;36;20086;-50
2023/02/14 00:54:27;;;;;;;51.10;22.45;;;;;;;1.83;100.00;103473.75;2613302;36;20041;-54
2023/02/14 00:56:56;;;;;;;52.00;23.17;;;;;;;1.81;100.00;103467.56;2613037;36;20038;-54
2023/02/14 00:59:24;;;;;;;51.28;23.02;;;;;;;1.78;100.00;103460.50;2613651;36;20042;-51
2023/02/14 01:01:53;;;;;;;47.50;21.13;;;;;;;1.73;100.00;103463.19;2614572;36;20034;-54
2023/02/14 01:04:22;;;;;;;48.13;22.70;;;;;;;1.69;100.00;103463.25;2610775;36;20042;-52
2023/02/14 01:06:50;;;;;;;55.08;24.38;;;;;;;1.67;100.00;103460.59;2611073;36;20315;-52
2023/02/14 01:09:21;;;;;;;47.40;22.17;;;;;;;1.63;100.00;103460.66;2611402;36;20070;-52
2023/02/14 01:11:50;;;;;;;53.38;24.25;;;;;;;1.61;100.00;103460.66;2612115;36;20034;-49
2023/02/14 01:14:18;;;;;;;54.22;23.65;;;;;;;1.53;100.00;103457.19;2612764;36;20034;-54
2023/02/14 01:16:47;;;;;;;52.58;24.00;;;;;;;1.57;100.00;103458.94;2612280;36;20042;-54
2023/02/14 01:19:16;;;;;;;52.60;24.13;;;;;;;1.58;100.00;103450.94;2612875;31;20041;-56
2023/02/14 01:21:53;;;;;;;54.10;23.00;;;;;;;1.55;100.00;103460.72;2613019;36;20431;-49
2023/02/14 01:24:25;;;;;;;51.35;23.27;;;;;;;1.38;100.00;103451.13;2616005;31;20471;-53
2023/02/14 01:26:53;;;;;;;54.08;23.85;;;;;;;1.33;100.00;103450.28;2612014;36;20061;-54
2023/02/14 01:29:22;;;;;;;56.67;23.80;;;;;;;1.28;100.00;103446.81;2615607;36;20026;-53
2023/02/14 01:31:52;;;;;;;53.05;23.25;;;;;;;1.25;100.00;103452.09;2615609;31;20030;-58
2023/02/14 01:34:20;;;;;;;57.67;22.52;;;;;;;1.23;100.00;103449.47;2615699;36;20034;-57
2023/02/14 01:36:49;;;;;;;51.73;22.50;;;;;;;1.25;100.00;103454.75;2615647;36;20053;-49
2023/02/14 01:39:17;;;;;;;46.70;21.50;;;;;;;1.30;100.00;103452.97;2614622;36;20042;-55
2023/02/14 01:41:49;;;;;;;54.08;24.15;;;;;;;1.32;100.00;103451.16;2615835;36;20038;-55
2023/02/14 01:47:36;;;;;;;52.58;24.08;;;;;;;1.13;100.00;103453.06;2654681;31;20438;-54
2023/02/14 01:50:12;;;;;;;51.88;21.95;;;;;;;1.14;100.00;103449.53;2615300;36;20081;-55
2023/02/14 01:52:46;;;;;;;52.38;22.02;;;;;;;1.07;100.00;103452.25;2615954;36;20033;-52
2023/02/14 01:55:18;;;;;;;49.33;21.92;;;;;;;1.05;100.00;103455.78;2615580;36;20027;-55
2023/02/14 01:58:21;;;;;;;47.72;22.05;;;;;;;1.17;100.00;103448.66;2615776;36;20041;-55
2023/02/14 02:01:00;;;;;;;52.00;23.20;;;;;;;1.09;100.00;103437.19;2615742;31;20041;-51
2023/02/14 02:03:34;;;;;;;50.22;22.77;;;;;;;0.98;100.00;103438.16;2616347;36;20157;-52
2023/02/14 02:06:09;;;;;;;47.70;21.50;;;;;;;1.00;100.00;103433.75;2616420;36;20034;-56
2023/02/14 02:08:43;;;;;;;46.95;20.80;;;;;;;1.04;100.00;103434.59;2615176;36;20039;-51
2023/02/14 02:11:12;;;;;;;55.28;23.13;;;;;;;1.02;100.00;103439.03;2616103;36;20500;-55
2023/02/14 02:13:43;;;;;;;48.97;22.23;;;;;;;1.00;100.00;103436.38;2616137;36;20037;-52
2023/02/14 02:16:27;;;;;;;43.83;20.30;;;;;;;1.04;100.00;103432.78;2616338;31;20042;-54
2023/02/14 02:19:10;;;;;;;49.28;20.38;;;;;;;1.06;100.00;103430.16;2615507;36;20042;-54
2023/02/14 02:22:22;;;;;;;43.20;20.65;;;;;;;0.93;100.00;103429.38;2616075;31;20027;-53
2023/02/14 02:24:57;;;;;;;46.65;20.52;;;;;;;0.95;100.00;103432.88;2614886;36;20034;-55
2023/02/14 02:27:35;;;;;;;40.42;18.77;;;;;;;0.96;100.00;103434.63;2615923;36;20117;-52
2023/02/14 02:33:44;;;;;;;44.80;19.17;;;;;;;0.97;100.00;103425.81;2619139;31;20188;-50
2023/02/14 02:36:47;;;;;;;43.72;18.38;;;;;;;1.02;100.00;103426.63;2619734;36;20026;-51
2023/02/14 02:39:31;;;;;;;43.67;19.05;;;;;;;0.98;100.00;103419.59;2620194;36;20041;-54
2023/02/14 02:42:08;;;;;;;44.00;19.60;;;;;;;0.97;100.00;103430.22;2620433;36;20041;-56
2023/02/14 02:44:46;;;;;;;43.05;19.10;;;;;;;0.91;100.00;103425.81;2620726;36;20038;-56
2023/02/14 02:47:24;;;;;;;46.13;19.75;;;;;;;0.92;100.00;103432.03;2620969;36;20459;-53
2023/02/14 02:53:12;;;;;;;45.05;19.58;;;;;;;0.89;100.00;103427.63;2621355;36;20034;-55
2023/02/14 02:58:31;;;;;;;46.35;20.17;;;;;;;0.86;100.00;103422.34;2620716;36;20531;-51
2023/02/14 03:01:02;;;;;;;42.58;17.17;;;;;;;0.81;100.00;103422.38;2621075;36;20466;-51
2023/02/14 03:06:14;;;;;;;42.75;19.23;;;;;;;0.82;100.00;103425.88;2620366;31;20267;-55
2023/02/14 03:08:45;;;;;;;45.00;19.45;;;;;;;0.73;100.00;103432.13;2620082;36;20038;-53
2023/02/14 03:11:15;;;;;;;44.08;18.85;;;;;;;0.73;100.00;103420.66;2620650;36;20034;-55
2023/02/14 03:13:59;;;;;;;38.85;17.98;;;;;;;0.71;100.00;103423.31;2619956;31;20045;-53
2023/02/14 03:16:35;;;;;;;43.33;18.40;;;;;;;0.79;100.00;103424.13;2620038;36;20073;-54
2023/02/14 03:22:42;;;;;;;43.08;18.85;;;;;;;0.63;100.00;103415.41;2620843;31;20022;-54
2023/02/14 03:25:26;;;;;;;40.28;17.73;;;;;;;0.60;100.00;103412.75;2619965;36;20022;-55
2023/02/14 03:28:00;;;;;;;35.45;17.08;;;;;;;0.60;100.00;103412.75;2620506;36;20041;-51
2023/02/14 03:30:40;;;;;;;38.78;18.17;;;;;;;0.55;100.00;103406.63;2619610;36;20027;-56
2023/02/14 03:33:16;;;;;;;38.47;17.98;;;;;;;0.63;100.00;103403.91;2619521;36;20030;-51
2023/02/14 03:35:51;;;;;;;39.53;19.45;;;;;;;0.63;100.00;103401.25;2620319;36;20030;-53
2023/02/14 03:38:27;;;;;;;41.85;18.67;;;;;;;0.59;100.00;103403.06;2621031;36;20424;-53
2023/02/14 03:41:02;;;;;;;41.50;18.38;;;;;;;0.59;100.00;103403.06;2620349;36;20034;-51
2023/02/14 03:43:35;;;;;;;39.08;19.02;;;;;;;0.61;100.00;103401.28;2618295;36;20037;-53
2023/02/14 03:46:10;;;;;;;41.00;19.13;;;;;;;0.57;100.00;103394.22;2616575;36;20027;-55
2023/02/14 03:48:42;;;;;;;36.47;17.27;;;;;;;0.61;100.00;103389.81;2616229;36;20041;-54
2023/02/14 03:51:13;;;;;;;43.90;19.23;;;;;;;0.43;100.00;103391.66;2616801;36;20030;-56
2023/02/14 03:53:46;;;;;;;39.08;18.48;;;;;;;0.33;100.00;103390.81;2616606;36;20439;-52
2023/02/14 03:56:24;;;;;;;38.72;18.08;;;;;;;0.31;100.00;103389.06;2616082;36;20674;-56
2023/02/14 03:58:57;;;;;;;41.85;18.67;;;;;;;0.37;100.00;103396.09;2617002;36;20030;-54
2023/02/14 04:01:34;;;;;;;38.35;17.80;;;;;;;0.37;100.00;103393.44;2617107;31;20069;-56
2023/02/14 04:04:03;;;;;;;40.10;17.67;;;;;;;0.40;100.00;103396.97;2616071;36;20046;-55
2023/02/14 04:06:31;;;;;;;;;;;;;;;0.47;100.00;103389.88;2616845;36;20034;-55
2023/02/14 04:09:00;;;;;;;41.55;19.50;;;;;;;0.51;100.00;103389.84;2616320;36;19945;-56
2023/02/14 04:11:33;;;;;;;43.08;19.88;;;;;;;0.52;100.00;103401.34;2616598;36;20030;-54
2023/02/14 04:14:02;;;;;;;41.67;18.52;;;;;;;0.55;100.00;103401.31;2616440;36;20130;-55
2023/02/14 04:19:21;;;;;;;46.63;17.57;;;;;;;0.56;100.00;103402.19;2616465;36;20030;-55
2023/02/14 04:19:22;;;;;;;46.05;18.67;;;;;;;0.44;100.00;103400.47;2616336;36;20329;-56
2023/02/14 04:21:50;;;;;;;39.67;17.70;;;;;;;0.33;100.00;103400.53;2616815;36;20038;-56
2023/02/14 04:24:19;;;;;;;39.13;18.30;;;;;;;0.34;100.00;103405.84;2616817;36;20034;-55
2023/02/14 04:27:08;;;;;;;42.40;18.45;;;;;;;0.36;100.00;103404.97;2617078;31;20027;-55
2023/02/14 04:29:37;;;;;;;39.30;18.52;;;;;;;0.40;100.00;103398.72;2616486;36;20042;-52
2023/02/14 04:32:06;;;;;;;40.80;18.63;;;;;;;0.39;100.00;103394.34;2615772;36;20027;-55
2023/02/14 04:34:35;;;;;;;40.85;16.98;;;;;;;0.41;100.00;103404.03;2616509;36;20023;-53
2023/02/14 04:37:03;;;;;;;37.70;17.42;;;;;;;0.42;100.00;103402.28;2616710;36;20042;-53
2023/02/14 04:39:33;;;;;;;39.33;17.47;;;;;;;0.41;100.00;103400.50;2615931;36;20037;-60
2023/02/14 04:42:05;;;;;;;37.85;17.33;;;;;;;0.29;100.00;103399.66;2617167;31;20696;-55
2023/02/14 04:44:34;;;;;;;39.42;17.23;;;;;;;0.31;100.00;103400.56;2616256;36;20037;-56
2023/02/14 04:47:03;;;;;;;39.92;17.50;;;;;;;0.42;100.00;103396.97;2616439;36;20125;-56
2023/02/14 04:49:31;;;;;;;41.88;18.67;;;;;;;0.37;100.00;103391.69;2616290;36;20026;-57
2023/02/14 04:52:00;;;;;;;40.85;16.05;;;;;;;0.29;100.00;103393.50;2616708;36;20038;-56
2023/02/14 04:54:29;;;;;;;38.28;16.45;;;;;;;0.34;100.00;103386.41;2615532;31;20557;-57
2023/02/14 04:56:58;;;;;;;34.92;16.00;;;;;;;0.31;100.00;103386.41;2616548;36;20034;-54
2023/02/14 04:59:29;;;;;;;36.55;17.17;;;;;;;0.23;100.00;103389.09;2616350;36;20069;-55
2023/02/14 05:01:57;;;;;;;40.15;16.70;;;;;;;0.21;100.00;103396.19;2615916;36;20025;-58
2023/02/14 05:04:26;;;;;;;33.42;15.82;;;;;;;0.22;100.00;103391.75;2615621;36;20061;-55
2023/02/14 05:06:54;;;;;;;34.37;16.63;;;;;;;0.26;100.00;103380.25;2615216;36;20050;-54
2023/02/14 05:09:23;;;;;;;35.88;15.50;;;;;;;0.33;100.00;103388.16;2616290;36;20309;-56
2023/02/14 05:11:51;;;;;;;38.03;16.75;;;;;;;0.36;100.00;103389.06;2615977;36;20034;-53
2023/02/14 05:14:19;;;;;;;38.20;16.58;;;;;;;0.33;100.00;103382.00;2615367;36;20045;-55
2023/02/14 05:16:50;;;;;;;33.28;15.88;;;;;;;0.26;100.00;103389.09;2616621;36;20045;-50
2023/02/14 05:19:19;;;;;;;33.80;15.35;;;;;;;0.26;100.00;103388.22;2616194;36;20043;-56
2023/02/14 05:21:47;;;;;;;37.00;16.42;;;;;;;0.26;100.00;103386.44;2616287;36;20595;-57
2023/02/14 05:24:15;;;;;;;33.95;16.25;;;;;;;0.19;100.00;103381.19;2616459;31;20037;-57
2023/02/14 05:26:44;;;;;;;36.23;17.63;;;;;;;0.16;100.00;103382.06;2616778;36;20034;-57
2023/02/14 05:29:12;;;;;;;36.97;17.40;;;;;;;0.15;100.00;103375.91;2616693;36;20427;-57
2023/02/14 05:31:41;;;;;;;35.70;15.45;;;;;;;0.18;100.00;103380.31;2616399;36;20295;-55
2023/02/14 05:34:12;;;;;;;31.80;14.70;;;;;;;0.20;100.00;103378.53;2616196;31;20046;-55
2023/02/14 05:36:40;;;;;;;36.92;16.88;;;;;;;0.19;100.00;103382.03;2615906;36;20034;-56
2023/02/14 05:39:09;;;;;;;36.50;16.77;;;;;;;0.15;100.00;103381.19;2616124;36;20039;-55
2023/02/14 05:41:38;;;;;;;40.53;17.85;;;;;;;0.16;100.00;103382.06;2615913;36;20034;-54
2023/02/14 05:44:06;;;;;;;36.23;18.23;;;;;;;0.16;100.00;103385.63;2615490;36;20034;-55
2023/02/14 05:46:34;;;;;;;38.67;17.52;;;;;;;0.13;100.00;103379.44;2616063;36;20308;-54
2023/02/14 05:49:03;;;;;;;36.72;17.73;;;;;;;0.18;100.00;103390.91;2615377;36;20045;-56
2023/02/14 05:51:34;;;;;;;37.13;17.58;;;;;;;0.23;100.00;103388.22;2615711;36;20042;-58
2023/02/14 05:54:02;;;;;;;34.75;17.33;;;;;;;0.16;100.00;103385.63;2614714;36;20023;-56
2023/02/14 05:56:30;;;;;;;35.20;16.58;;;;;;;0.11;100.00;103384.75;2615854;36;20031;-56
2023/02/14 05:58:59;;;;;;;39.95;18.95;;;;;;;0.12;100.00;103380.34;2614785;36;20056;-55
2023/02/14 06:01:27;;;;;;;39.25;18.02;;;;;;;0.17;100.00;103378.53;2615759;36;20558;-56
2023/02/14 06:03:55;;;;;;;37.67;17.25;;;;;;;0.21;100.00;103390.88;2615434;31;20042;-56
2023/02/14 06:06:24;;;;;;;34.75;16.90;;;;;;;0.17;100.00;103378.53;2615465;36;20026;-57
2023/02/14 06:08:55;;;;;;;39.63;18.35;;;;;;;0.11;100.00;103383.88;2615718;36;20045;-54
2023/02/14 06:11:23;;;;;;;40.97;18.02;;;;;;;0.08;100.00;103384.75;2615897;36;20045;-54
2023/02/14 06:13:51;;;;;;;41.17;19.30;;;;;;;0.14;100.00;103383.84;2616022;36;20053;-55
2023/02/14 06:16:20;;;;;;;43.28;20.55;;;;;;;0.24;100.00;103380.28;2615869;31;20551;-56
2023/02/14 06:18:48;;;;;;;41.65;20.08;;;;;;;0.26;100.00;103388.22;2613831;36;20030;-56
2023/02/14 06:21:16;;;;;;;44.58;19.50;;;;;;;0.29;100.00;103381.13;2614240;36;20030;-56
2023/02/14 06:23:45;;;;;;;43.53;20.10;;;;;;;0.37;100.00;103382.84;2615615;36;20535;-59
2023/02/14 06:26:16;;;;;;;46.10;20.75;;;;;;;0.33;100.00;103382.88;2615490;36;20034;-59
2023/02/14 06:28:44;;;;;;;44.22;20.60;;;;;;;0.33;100.00;103388.16;2614067;36;20041;-54
2023/02/14 06:31:18;;;;;;;38.13;18.60;;;;;;;0.28;100.00;103382.03;2613934;36;20049;-54
2023/02/14 06:33:46;;;;;;;41.83;18.95;;;;;;;0.40;100.00;103377.53;2614257;36;20150;-58
2023/02/14 06:36:14;;;;;;;42.05;19.75;;;;;;;0.45;100.00;103373.97;2615132;36;20035;-56
2023/02/14 06:38:43;;;;;;;43.25;20.10;;;;;;;0.49;100.00;103382.81;2614646;36;20026;-54
2023/02/14 06:41:13;;;;;;;43.17;20.58;;;;;;;0.48;100.00;103384.56;2614578;31;20480;-54
2023/02/14 06:43:47;;;;;;;46.70;21.48;;;;;;;0.61;100.00;103384.50;2614785;36;20130;-56
2023/02/14 06:46:16;;;;;;;45.47;21.52;;;;;;;0.61;100.00;103382.72;2613789;36;21721;-53
2023/02/14 06:48:47;;;;;;;41.75;20.83;;;;;;;0.61;100.00;103390.66;2615055;36;20039;-53
2023/02/14 06:51:16;;;;;;;46.10;21.50;;;;;;;0.59;100.00;103387.16;2614823;36;20069;-53
2023/02/14 06:53:44;;;;;;;39.08;20.00;;;;;;;0.58;100.00;103385.41;2613880;36;20578;-56
2023/02/14 06:56:12;;;;;;;45.17;21.20;;;;;;;0.59;100.00;103384.50;2612841;36;20042;-54
2023/02/14 06:58:44;;;;;;;44.60;20.80;;;;;;;0.57;100.00;103382.75;2612169;36;20042;-55
2023/02/14 07:01:12;;;;;;;44.72;21.48;;;;;;;0.58;100.00;103389.81;2614810;31;20427;-56
2023/02/14 07:03:40;;;;;;;45.72;20.30;;;;;;;0.57;100.00;103391.56;2614576;31;20037;-56
2023/02/14 07:06:09;;;;;;;41.63;21.35;;;;;;;0.56;100.00;103394.22;2611698;31;20026;-56
2023/02/14 07:08:37;;;;;;;43.13;20.40;;;;;;;0.51;100.00;103395.13;2614610;36;20118;-56
2023/02/14 07:11:11;;;;;;;40.03;20.38;;;;;;;0.61;100.00;103400.41;2614107;54;20053;-57
2023/02/14 07:13:40;;;;;;;38.35;19.00;;;;;;;0.66;100.00;103399.50;2615015;36;20045;-55
2023/02/14 07:16:11;;;;;;;42.10;20.75;;;;;;;0.64;100.00;103395.94;2614862;31;20038;-54
2023/02/14 07:18:39;;;;;;;41.42;20.05;;;;;;;0.60;100.00;103401.28;2615801;31;20035;-55
2023/02/14 07:21:07;;;;;;;40.22;18.83;;;;;;;0.54;100.00;103399.53;2617092;36;20066;-57
2023/02/14 07:23:36;;;;;;;42.92;20.52;;;;;;;0.65;100.00;103392.41;2615643;36;20138;-56
2023/02/14 07:26:04;;;;;;;47.58;21.02;;;;;;;0.77;100.00;103385.28;2616514;31;20030;-54
2023/02/14 07:28:33;;;;;;;46.58;23.13;;;;;;;0.98;100.00;103398.38;2616764;36;20129;-56
2023/02/14 07:31:01;;;;;;;48.35;22.38;;;;;;;1.10;100.00;103393.88;2616755;36;20057;-56
2023/02/14 07:33:32;;;;;;;54.92;23.73;;;;;;;1.26;100.00;103399.94;2616654;31;20554;-56
2023/02/14 07:36:06;;;;;;;56.25;24.13;;;;;;;1.37;100.00;103391.00;2616899;36;20034;-57
2023/02/14 07:38:34;;;;;;;62.65;24.02;;;;;;;1.42;100.00;103390.94;2617040;31;20439;-56
2023/02/14 07:41:02;;;;;;;58.55;25.48;;;;;;;1.49;100.00;103397.09;2616769;36;20066;-56
2023/02/14 07:43:33;;;;;;;59.95;24.75;;;;;;;1.49;100.00;103397.09;2616766;36;20030;-54
2023/02/14 07:46:02;;;;;;;64.15;29.05;;;;;;;1.46;100.00;103394.44;2616893;31;20049;-55
2023/02/14 07:48:33;;;;;;;58.97;25.42;;;;;;;1.53;100.00;103398.78;2616196;31;20053;-54
2023/02/14 07:51:01;;;;;;;57.92;25.80;;;;;;;1.50;100.00;103401.47;2616977;36;20042;-55
2023/02/14 07:53:30;;;;;;;55.13;25.05;;;;;;;1.73;100.00;103401.25;2616477;36;20046;-56
2023/02/14 07:55:58;;;;;;;60.78;27.13;;;;;;;1.93;100.00;103398.41;2616507;36;20031;-56
2023/02/14 07:58:26;;;;;;;69.78;28.30;;;;;;;1.99;100.00;103398.31;2616301;36;20578;-56
2023/02/14 08:00:56;;;;;;;59.63;27.48;;;;;;;1.98;100.00;103404.53;2616970;36;20026;-56
2023/02/14 08:03:24;;;;;;;60.75;26.00;;;;;;;2.04;100.00;103395.59;2616379;36;20038;-56
2023/02/14 08:05:58;;;;;;;60.35;28.30;;;;;;;2.15;100.00;103395.47;2616602;36;20034;-56
2023/02/14 08:08:28;;;;;;;65.10;27.35;;;;;;;2.25;100.00;103382.06;2615750;36;20130;-56
2023/02/14 08:10:56;;;;;;;54.97;27.33;;;;;;;2.36;100.00;103384.56;2616517;36;20034;-56
2023/02/14 08:13:24;;;;;;;71.45;30.08;;;;;;;2.50;100.00;103383.50;2616394;36;20034;-57
2023/02/14 08:16:08;;;;;;;62.78;28.80;;;;;;;2.52;100.00;103381.69;2616408;36;20038;-55
2023/02/14 08:18:38;;;;;;;63.97;28.63;;;;;;;2.59;100.00;103391.34;2615922;36;20046;-55
2023/02/14 08:21:11;;;;;;;67.68;28.30;;;;;;;2.82;100.00;103387.47;2617126;36;20453;-55
2023/02/14 08:23:40;;;;;;;61.22;29.98;;;;;;;2.94;100.00;103381.94;2616408;31;20045;-55
2023/02/14 08:26:09;;;;;;;71.22;32.08;;;;;;;3.16;100.00;103390.47;2616327;36;20034;-52
2023/02/14 08:28:37;;;;;;;74.32;33.17;;;;;;;3.24;100.00;103387.66;2616846;36;20504;-56
2023/02/14 08:31:06;;;;;;;73.82;34.25;;;;;;;3.38;100.00;103383.00;2616584;36;20041;-56
2023/02/14 08:33:34;;;;;;;84.38;32.70;;;;;;;3.45;100.00;103386.44;2615434;36;20594;-55
2023/02/14 08:36:03;;;;;;;79.38;33.60;;;;;;;3.56;100.00;103388.88;2616719;36;20034;-55
2023/02/14 08:38:34;;;;;;;74.88;33.63;;;;;;;3.65;100.00;103389.59;2616226;36;20038;-56
2023/02/14 08:41:03;;;;;;;77.72;33.50;;;;;;;3.74;100.00;103382.34;2616402;36;20034;-59
2023/02/14 08:43:31;;;;;;;83.73;36.10;;;;;;;3.98;100.00;103387.19;2616304;36;20034;-56
2023/02/14 08:46:00;;;;;;;81.05;36.47;;;;;;;4.13;100.00;103372.66;2616584;36;20350;-56
2023/02/14 08:48:28;;;;;;;85.45;36.70;;;;;;;4.13;100.00;103390.44;2616007;31;20173;-58
2023/02/14 08:50:57;;;;;;;77.03;35.33;;;;;;;4.31;100.00;103389.19;2616384;36;20046;-58
2023/02/14 08:53:25;;;;;;;79.07;36.28;;;;;;;4.45;100.00;103383.56;2615941;36;20041;-51
2023/02/14 08:55:56;;;;;;;82.10;38.70;;;;;;;4.65;100.00;103389.31;2616512;36;20578;-53
2023/02/14 08:58:24;;;;;;;80.50;37.30;;;;;;;4.80;100.00;103390.75;2616239;36;20049;-56
2023/02/14 09:00:54;;;;;;;81.65;39.15;;;;;;;4.83;100.00;103387.13;2616560;36;20038;-58
2023/02/14 09:03:22;;;;;;;90.68;39.53;;;;;;;5.23;100.00;103392.34;2616192;36;20085;-52
2023/02/14 09:05:51;;;;;;;84.70;38.38;;;;;;;5.03;100.00;103394.66;2615966;36;20540;-59
2023/02/14 09:08:19;;;;;;;88.47;41.10;;;;;;;5.06;100.00;103384.78;2615777;36;20033;-54
2023/02/14 09:10:47;;;;;;;87.93;38.63;;;;;;;5.16;100.00;103388.09;2616229;36;20035;-55
2023/02/14 09:13:18;;;;;;;89.75;39.67;;;;;;;5.35;100.00;103391.16;2616549;36;20042;-56
2023/02/14 09:15:46;;;;;;;87.88;40.33;;;;;;;5.32;100.00;103385.03;2615534;36;20038;-57
2023/02/14 09:18:15;;;;;;;87.40;39.72;;;;;;;5.54;100.00;103391.56;2616216;36;20030;-58
2023/02/14 09:20:44;;;;;;;87.90;39.67;;;;;;;5.63;100.00;103379.75;2615921;36;20042;-59
2023/02/14 09:23:12;;;;;;;93.50;41.08;;;;;;;5.77;100.00;103387.38;2616202;36;20046;-53
2023/02/14 09:25:41;;;;;;;84.57;40.28;;;;;;;5.65;100.00;103379.72;2616380;36;20038;-56
2023/02/14 09:28:09;;;;;;;98.85;41.08;;;;;;;5.77;100.00;103382.03;2616247;36;20026;-53
2023/02/14 09:30:40;;;;;;;81.32;40.90;;;;;;;5.89;100.00;103376.38;2616405;36;20047;-58
2023/02/14 09:33:08;;;;;;;88.20;40.85;;;;;;;6.00;100.00;103377.88;2616499;36;20034;-52
2023/02/14 09:38:18;;;;;;;79.40;36.97;;;;;;;6.23;100.00;103375.41;2615433;31;20558;-56
2023/02/14 09:40:47;;;;;;;80.63;37.42;;;;;;;6.29;100.00;103375.22;2615749;36;20038;-53
2023/02/14 09:43:24;;;;;;;83.20;36.10;;;;;;;6.47;100.00;103370.22;2616578;36;20149;-55
2023/02/14 09:45:58;;;;;;;73.50;37.47;;;;;;;6.51;100.00;103374.56;2615649;36;20041;-58
2023/02/14 09:48:33;;;;;;;73.50;36.60;;;;;;;6.51;100.00;103373.69;2616162;36;20041;-56
2023/02/14 09:51:05;;;;;;;70.47;34.42;;;;;;;6.69;100.00;103372.25;2616549;36;20033;-58
2023/02/14 09:53:37;;;;;;;69.70;34.67;;;;;;;6.88;100.00;103365.38;2615586;36;20579;-52
2023/02/14 09:56:10;;;;;;;68.15;33.65;;;;;;;6.96;100.00;103359.75;2616150;36;20574;-56
2023/02/14 09:58:47;;;;;;;69.95;33.50;;;;;;;7.05;100.00;103366.59;2616133;36;20038;-53
2023/02/14 10:01:24;;;;;;;70.53;32.28;;;;;;;7.12;100.00;103368.16;2616529;36;20034;-55
2023/02/14 10:04:17;;;;;;;63.22;33.05;;;;;;;7.46;100.00;103361.63;2611915;36;20035;-55
2023/02/14 10:06:51;;;;;;;62.33;31.17;;;;;;;7.42;100.00;103362.66;2613160;36;20085;-53
2023/02/14 10:09:47;;;;;;;61.53;29.85;;;;;;;7.51;100.00;103365.91;2615525;31;20487;-55
2023/02/14 10:12:22;;;;;;;62.05;31.55;;;;;;;7.56;100.00;103365.72;2613435;36;20026;-57
2023/02/14 10:14:51;;;;;;;57.05;29.30;;;;;;;7.62;100.00;103361.97;2614818;36;20049;-56
2023/02/14 10:17:26;;;;;;;;;;;;;;;7.69;100.00;103356.31;2615261;36;20026;-54
2023/02/14 10:19:59;;;;;;;60.90;30.40;;;;;;;7.94;100.00;103359.91;2615593;31;19947;-56
2023/02/14 10:22:40;;;;;;;60.45;28.58;;;;;;;8.08;100.00;103360.25;2615850;36;20042;-59
2023/02/14 10:25:17;;;;;;;58.65;29.15;;;;;;;7.99;100.00;103358.78;2616164;36;20034;-55
2023/02/14 10:27:48;;;;;;;57.67;29.38;;;;;;;8.09;100.00;103362.00;2615478;36;20045;-55
2023/02/14 10:30:18;;;;;;;57.38;28.13;;;;;;;8.35;100.00;103361.00;2615516;36;20055;-53
2023/02/14 10:32:51;;;;;;;58.60;29.00;;;;;;;8.42;100.00;103357.16;2615767;36;20034;-58
2023/02/14 10:35:32;;;;;;;48.03;25.40;;;;;;;8.59;100.00;103352.94;2615837;36;20427;-56
2023/02/14 10:38:13;;;;;;;55.90;29.25;;;;;;;8.51;100.00;103355.94;2615640;36;20030;-57
2023/02/14 10:41:14;;;;;;;54.03;27.58;;;;;;;8.62;100.00;103351.97;2614367;31;20041;-55
2023/02/14 10:43:54;;;;;;;50.90;26.75;;;;;;;8.85;100.00;103351.00;2613213;36;20035;-58
2023/02/14 10:46:34;;;;;;;48.50;26.27;;;;;;;8.87;100.00;103351.81;2614677;36;20065;-56
2023/02/14 10:49:27;;;;;;;51.55;25.33;;;;;;;9.01;100.00;103344.06;2614864;36;20038;-54
2023/02/14 10:52:10;;;;;;;54.45;25.23;;;;;;;9.13;100.00;103353.44;2614597;36;20440;-53
2023/02/14 10:54:40;;;;;;;51.30;26.38;;;;;;;9.19;100.00;103344.22;2620131;36;20069;-54
2023/02/14 10:57:16;;;;;;;49.75;25.85;;;;;;;9.32;100.00;103342.75;2614720;36;20035;-56
2023/02/14 10:59:52;;;;;;;52.50;24.60;;;;;;;9.30;100.00;103339.25;2615604;36;20042;-57
2023/02/14 11:02:24;;;;;;;48.20;24.67;;;;;;;9.15;100.00;103334.56;2615347;36;20045;-51
2023/02/14 11:04:56;;;;;;;52.28;25.10;;;;;;;9.15;100.00;103331.84;2613776;36;20175;-52
2023/02/14 11:07:25;;;;;;;53.30;24.83;;;;;;;9.15;100.00;103324.66;2614358;36;20034;-53
2023/02/14 11:09:53;;;;;;;52.97;26.33;;;;;;;9.41;100.00;103323.53;2613693;36;20162;-55
2023/02/14 11:12:36;;;;;;;52.92;25.55;;;;;;;9.12;100.00;103328.34;2615889;36;20420;-54
2023/02/14 11:15:20;;;;;;;49.80;26.10;;;;;;;9.29;100.00;103316.03;2616403;36;20637;-54
2023/02/14 11:17:49;;;;;;;55.35;27.33;;;;;;;9.46;100.00;103313.44;2615655;36;20030;-54
2023/02/14 11:20:30;;;;;;;50.97;25.17;;;;;;;9.63;100.00;103309.13;2615561;36;20565;-57
2023/02/14 11:22:59;;;;;;;49.80;24.90;;;;;;;9.91;100.00;103302.47;2615538;36;20173;-56
2023/02/14 11:25:30;;;;;;;56.55;26.05;;;;;;;10.11;100.00;103302.41;2615527;36;20551;-58
2023/02/14 11:28:02;;;;;;;45.58;23.92;;;;;;;10.33;100.00;103309.44;2615094;36;20045;-57
2023/02/14 11:30:36;;;;;;;41.38;22.92;;;;;;;10.18;100.00;103303.84;2615675;36;20043;-57
2023/02/14 11:33:08;;;;;;;41.10;22.25;;;;;;;10.35;100.00;103302.22;2613554;36;21276;-58
2023/02/14 11:35:40;;;;;;;49.63;24.63;;;;;;;10.67;100.00;103297.94;2615235;36;20113;-57
2023/02/14 11:38:29;;;;;;;44.67;22.38;;;;;;;10.76;100.00;103290.31;2615195;36;20125;-57
2023/02/14 11:40:59;;;;;;;41.95;22.48;;;;;;;10.49;100.00;103291.63;2615660;36;20042;-53
2023/02/14 11:43:33;;;;;;;44.10;23.60;;;;;;;10.49;100.00;103288.06;2616159;36;20042;-59
2023/02/14 11:46:29;;;;;;;40.53;21.73;;;;;;;10.43;100.00;103283.84;2615398;36;20045;-56
2023/02/14 11:49:00;;;;;;;42.58;21.92;;;;;;;10.42;100.00;103271.34;2614749;36;20034;-56
2023/02/14 11:51:35;;;;;;;40.58;21.10;;;;;;;10.44;100.00;103268.59;2612923;36;20030;-56
2023/02/14 11:54:06;;;;;;;34.03;20.45;;;;;;;10.65;100.00;103272.03;2614907;36;20034;-55
2023/02/14 11:56:50;;;;;;;34.85;19.88;;;;;;;10.84;100.00;103264.75;2614922;36;20667;-52